TUZ YBNS-YLTV
Flight info
| Callsign | TUZ |
|---|---|
| Flight time | 1h 18m |
| Altitude | 12000 |
| Route | YBNS/31 N0220F120 DCT YMES DCT YMEN DCT YLTV/03 DLE/ESDAN0010 RMK/ESDAN26ILS |
| Aircraft | BE60/L-SDE3FGHIRWY/C |
Departure
| Time | 2026-04-25 04:31 |
|---|---|
| Airport | Bairnsdale Airport (YBNS) |
Arrival
| Time | 2026-04-25 05:50 |
|---|---|
| Airport | Latrobe Valley Airport (YLTV) |
| Time | Latitude | Longitude | Altitude | Speed | Heading |
|---|---|---|---|---|---|
| 2026-04-25 04:07 | -37.87928 | 147.57006 | 168 ft | 0 kts | 9° |
| 2026-04-25 04:23 | -37.87916 | 147.57014 | 168 ft | 3 kts | 56° |
| 2026-04-25 04:23 | -37.87916 | 147.57078 | 168 ft | 8 kts | 92° |
| 2026-04-25 04:24 | -37.87930 | 147.57127 | 168 ft | 5 kts | 154° |
| 2026-04-25 04:24 | -37.87954 | 147.57138 | 168 ft | 3 kts | 169° |
| 2026-04-25 04:24 | -37.87984 | 147.57133 | 168 ft | 5 kts | 194° |
| 2026-04-25 04:24 | -37.88027 | 147.57122 | 168 ft | 7 kts | 190° |
| 2026-04-25 04:25 | -37.88083 | 147.57108 | 168 ft | 9 kts | 189° |
| 2026-04-25 04:25 | -37.88150 | 147.57094 | 168 ft | 10 kts | 192° |
| 2026-04-25 04:25 | -37.88211 | 147.57077 | 168 ft | 8 kts | 187° |
| 2026-04-25 04:25 | -37.88235 | 147.57107 | 168 ft | 5 kts | 75° |
| 2026-04-25 04:26 | -37.88229 | 147.57138 | 168 ft | 4 kts | 82° |
| 2026-04-25 04:26 | -37.88223 | 147.57185 | 167 ft | 7 kts | 81° |
| 2026-04-25 04:26 | -37.88211 | 147.57265 | 168 ft | 11 kts | 77° |
| 2026-04-25 04:26 | -37.88200 | 147.57368 | 168 ft | 11 kts | 87° |
| 2026-04-25 04:27 | -37.88200 | 147.57413 | 168 ft | 0 kts | 92° |
| 2026-04-25 04:28 | -37.88200 | 147.57414 | 168 ft | 1 kts | 93° |
| 2026-04-25 04:28 | -37.88206 | 147.57473 | 168 ft | 8 kts | 102° |
| 2026-04-25 04:29 | -37.88208 | 147.57483 | 168 ft | 0 kts | 103° |
| 2026-04-25 04:29 | -37.88228 | 147.57493 | 168 ft | 8 kts | 196° |
| 2026-04-25 04:29 | -37.88310 | 147.57468 | 168 ft | 15 kts | 190° |
| 2026-04-25 04:29 | -37.88397 | 147.57448 | 168 ft | 6 kts | 190° |
| 2026-04-25 04:30 | -37.88404 | 147.57447 | 168 ft | 0 kts | 191° |
| 2026-04-25 04:30 | -37.88413 | 147.57445 | 169 ft | 6 kts | 189° |
| 2026-04-25 04:30 | -37.88470 | 147.57446 | 170 ft | 7 kts | 183° |
| 2026-04-25 04:30 | -37.88481 | 147.57431 | 170 ft | 9 kts | 238° |
| 2026-04-25 04:31 | -37.88645 | 147.57131 | 168 ft | 79 kts | 234° |
| 2026-04-25 04:31 | -37.89049 | 147.56379 | 242 ft | 117 kts | 236° |
| 2026-04-25 04:31 | -37.89492 | 147.55447 | 575 ft | 129 kts | 242° |
| 2026-04-25 04:31 | -37.89935 | 147.54479 | 966 ft | 126 kts | 239° |
| 2026-04-25 04:32 | -37.90403 | 147.53502 | 1254 ft | 132 kts | 237° |
| 2026-04-25 04:32 | -37.90914 | 147.52520 | 1579 ft | 134 kts | 238° |
| 2026-04-25 04:32 | -37.91387 | 147.51506 | 1901 ft | 136 kts | 244° |
| 2026-04-25 04:32 | -37.91886 | 147.50471 | 2223 ft | 137 kts | 235° |
| 2026-04-25 04:33 | -37.92433 | 147.49479 | 2562 ft | 136 kts | 238° |
| 2026-04-25 04:33 | -37.92964 | 147.48510 | 3006 ft | 129 kts | 234° |
| 2026-04-25 04:33 | -37.93517 | 147.47620 | 3350 ft | 131 kts | 237° |
| 2026-04-25 04:33 | -37.94038 | 147.46657 | 3655 ft | 134 kts | 240° |
| 2026-04-25 04:34 | -37.94534 | 147.45656 | 4015 ft | 132 kts | 240° |
| 2026-04-25 04:34 | -37.95051 | 147.44720 | 4416 ft | 128 kts | 238° |
| 2026-04-25 04:34 | -37.95569 | 147.43781 | 4751 ft | 131 kts | 237° |
| 2026-04-25 04:34 | -37.96114 | 147.42854 | 5101 ft | 131 kts | 238° |
| 2026-04-25 04:35 | -37.96636 | 147.41905 | 5437 ft | 131 kts | 241° |
| 2026-04-25 04:35 | -37.97137 | 147.40930 | 5770 ft | 132 kts | 242° |
| 2026-04-25 04:35 | -37.97620 | 147.39937 | 6114 ft | 132 kts | 242° |
| 2026-04-25 04:35 | -37.98183 | 147.38999 | 6431 ft | 135 kts | 236° |
| 2026-04-25 04:36 | -37.98734 | 147.38036 | 6775 ft | 135 kts | 240° |
| 2026-04-25 04:36 | -37.99340 | 147.37111 | 7085 ft | 138 kts | 235° |
| 2026-04-25 04:36 | -38.00001 | 147.36210 | 7384 ft | 140 kts | 234° |
| 2026-04-25 04:36 | -38.00659 | 147.35299 | 7709 ft | 140 kts | 233° |
| 2026-04-25 04:37 | -38.01334 | 147.34400 | 8007 ft | 142 kts | 232° |
| 2026-04-25 04:37 | -38.02056 | 147.33522 | 8315 ft | 144 kts | 228° |
| 2026-04-25 04:37 | -38.02762 | 147.32627 | 8629 ft | 144 kts | 238° |
| 2026-04-25 04:37 | -38.03307 | 147.31566 | 8946 ft | 142 kts | 246° |
| 2026-04-25 04:38 | -38.03784 | 147.30476 | 9284 ft | 143 kts | 242° |
| 2026-04-25 04:38 | -38.04403 | 147.29448 | 9563 ft | 148 kts | 238° |
| 2026-04-25 04:38 | -38.05002 | 147.28405 | 9944 ft | 145 kts | 240° |
| 2026-04-25 04:38 | -38.05576 | 147.27339 | 10234 ft | 149 kts | 240° |
| 2026-04-25 04:39 | -38.06172 | 147.26258 | 10530 ft | 149 kts | 239° |
| 2026-04-25 04:39 | -38.06699 | 147.25150 | 10839 ft | 147 kts | 249° |
| 2026-04-25 04:39 | -38.07093 | 147.23946 | 11124 ft | 148 kts | 251° |
| 2026-04-25 04:39 | -38.07537 | 147.22778 | 11461 ft | 147 kts | 245° |
| 2026-04-25 04:40 | -38.08035 | 147.21630 | 11736 ft | 150 kts | 247° |
| 2026-04-25 04:40 | -38.08515 | 147.20434 | 11945 ft | 157 kts | 248° |
| 2026-04-25 04:40 | -38.09008 | 147.19136 | 12035 ft | 169 kts | 250° |
| 2026-04-25 04:40 | -38.09536 | 147.17745 | 12050 ft | 182 kts | 248° |
| 2026-04-25 04:41 | -38.10128 | 147.16269 | 11989 ft | 195 kts | 246° |
| 2026-04-25 04:41 | -38.10545 | 147.14536 | 11538 ft | 211 kts | 272° |
| 2026-04-25 04:41 | -38.10364 | 147.12781 | 11848 ft | 193 kts | 283° |
| 2026-04-25 04:41 | -38.10131 | 147.11134 | 12031 ft | 188 kts | 282° |
| 2026-04-25 04:42 | -38.09899 | 147.09398 | 11841 ft | 200 kts | 282° |
| 2026-04-25 04:42 | -38.09619 | 147.07700 | 11994 ft | 194 kts | 285° |
| 2026-04-25 04:42 | -38.09286 | 147.06045 | 12053 ft | 195 kts | 286° |
| 2026-04-25 04:42 | -38.08980 | 147.04336 | 11912 ft | 203 kts | 284° |
| 2026-04-25 04:43 | -38.08639 | 147.02582 | 11888 ft | 203 kts | 285° |
| 2026-04-25 04:43 | -38.08326 | 147.00835 | 11895 ft | 202 kts | 285° |
| 2026-04-25 04:43 | -38.08050 | 146.99098 | 11941 ft | 201 kts | 283° |
| 2026-04-25 04:43 | -38.07791 | 146.97364 | 11993 ft | 199 kts | 283° |
| 2026-04-25 04:44 | -38.07545 | 146.95638 | 12045 ft | 198 kts | 282° |
| 2026-04-25 04:44 | -38.07337 | 146.93906 | 12057 ft | 199 kts | 280° |
| 2026-04-25 04:44 | -38.07186 | 146.92150 | 12053 ft | 201 kts | 278° |
| 2026-04-25 04:44 | -38.07040 | 146.90357 | 11957 ft | 206 kts | 278° |
| 2026-04-25 04:45 | -38.06857 | 146.88575 | 12056 ft | 200 kts | 280° |
| 2026-04-25 04:45 | -38.06676 | 146.86850 | 12158 ft | 197 kts | 279° |
| 2026-04-25 04:45 | -38.06522 | 146.85090 | 12128 ft | 201 kts | 278° |
| 2026-04-25 04:45 | -38.06363 | 146.83317 | 12049 ft | 205 kts | 280° |
| 2026-04-25 04:46 | -38.06241 | 146.81575 | 12324 ft | 193 kts | 277° |
| 2026-04-25 04:46 | -38.06111 | 146.79817 | 12052 ft | 207 kts | 279° |
| 2026-04-25 04:46 | -38.05957 | 146.78006 | 12038 ft | 206 kts | 279° |
| 2026-04-25 04:46 | -38.05797 | 146.76195 | 12008 ft | 206 kts | 280° |
| 2026-04-25 04:47 | -38.05590 | 146.74409 | 11997 ft | 203 kts | 281° |
| 2026-04-25 04:47 | -38.05338 | 146.72667 | 11992 ft | 199 kts | 285° |
| 2026-04-25 04:47 | -38.05019 | 146.70975 | 11983 ft | 196 kts | 286° |
| 2026-04-25 04:47 | -38.04678 | 146.69301 | 11875 ft | 199 kts | 287° |
| 2026-04-25 04:48 | -38.04315 | 146.67575 | 11643 ft | 205 kts | 287° |
| 2026-04-25 04:48 | -38.03940 | 146.65822 | 11418 ft | 207 kts | 287° |
| 2026-04-25 04:48 | -38.03558 | 146.64054 | 11196 ft | 209 kts | 287° |
| 2026-04-25 04:48 | -38.03170 | 146.62273 | 10979 ft | 209 kts | 287° |
| 2026-04-25 04:49 | -38.02780 | 146.60496 | 10765 ft | 209 kts | 287° |
| 2026-04-25 04:49 | -38.02387 | 146.58720 | 10550 ft | 209 kts | 287° |
| 2026-04-25 04:49 | -38.01994 | 146.56947 | 10346 ft | 209 kts | 287° |
| 2026-04-25 04:49 | -38.01599 | 146.55179 | 10137 ft | 208 kts | 288° |
| 2026-04-25 04:50 | -38.01333 | 146.53990 | 9962 ft | 207 kts | 288° |
| 2026-04-25 04:50 | -38.00941 | 146.52234 | 9707 ft | 206 kts | 288° |
| 2026-04-25 04:50 | -38.00554 | 146.50487 | 9496 ft | 206 kts | 288° |
| 2026-04-25 04:50 | -38.00168 | 146.48746 | 9272 ft | 205 kts | 288° |
| 2026-04-25 04:51 | -37.99787 | 146.47022 | 9132 ft | 201 kts | 288° |
| 2026-04-25 04:51 | -37.99415 | 146.45345 | 9047 ft | 194 kts | 288° |
| 2026-04-25 04:51 | -37.99058 | 146.43717 | 9019 ft | 189 kts | 288° |
| 2026-04-25 04:51 | -37.98711 | 146.42131 | 9009 ft | 185 kts | 288° |
| 2026-04-25 04:52 | -37.98370 | 146.40578 | 9001 ft | 181 kts | 288° |
| 2026-04-25 04:52 | -37.98036 | 146.39043 | 9010 ft | 180 kts | 288° |
| 2026-04-25 04:52 | -37.97750 | 146.37504 | 9005 ft | 179 kts | 284° |
| 2026-04-25 04:52 | -37.97534 | 146.35945 | 9005 ft | 180 kts | 282° |
| 2026-04-25 04:53 | -37.97345 | 146.34381 | 9001 ft | 180 kts | 281° |
| 2026-04-25 04:53 | -37.97165 | 146.32810 | 9000 ft | 180 kts | 281° |
| 2026-04-25 04:53 | -37.96989 | 146.31242 | 9001 ft | 180 kts | 281° |
| 2026-04-25 04:53 | -37.96814 | 146.29676 | 9006 ft | 179 kts | 281° |
| 2026-04-25 04:54 | -37.96638 | 146.28111 | 9004 ft | 179 kts | 281° |
| 2026-04-25 04:54 | -37.96465 | 146.26549 | 8997 ft | 179 kts | 281° |
| 2026-04-25 04:54 | -37.96294 | 146.24993 | 8999 ft | 178 kts | 281° |
| 2026-04-25 04:54 | -37.96116 | 146.23439 | 9003 ft | 178 kts | 281° |
| 2026-04-25 04:55 | -37.95941 | 146.21879 | 8997 ft | 179 kts | 281° |
| 2026-04-25 04:55 | -37.95767 | 146.20320 | 8999 ft | 179 kts | 281° |
| 2026-04-25 04:55 | -37.95585 | 146.18753 | 8995 ft | 180 kts | 281° |
| 2026-04-25 04:55 | -37.95407 | 146.17182 | 8991 ft | 180 kts | 281° |
| 2026-04-25 04:56 | -37.95232 | 146.15619 | 8987 ft | 179 kts | 281° |
| 2026-04-25 04:56 | -37.95056 | 146.14057 | 8990 ft | 179 kts | 281° |
| 2026-04-25 04:56 | -37.94882 | 146.12499 | 8993 ft | 178 kts | 281° |
| 2026-04-25 04:56 | -37.94707 | 146.10947 | 8992 ft | 178 kts | 281° |
| 2026-04-25 04:57 | -37.94529 | 146.09403 | 8993 ft | 177 kts | 281° |
| 2026-04-25 04:57 | -37.94350 | 146.07851 | 9000 ft | 178 kts | 281° |
| 2026-04-25 04:57 | -37.94166 | 146.06296 | 8997 ft | 179 kts | 281° |
| 2026-04-25 04:57 | -37.93978 | 146.04740 | 8996 ft | 179 kts | 281° |
| 2026-04-25 04:58 | -37.93800 | 146.03178 | 8993 ft | 179 kts | 281° |
| 2026-04-25 04:58 | -37.93616 | 146.01611 | 9020 ft | 180 kts | 281° |
| 2026-04-25 04:58 | -37.93417 | 146.00047 | 9023 ft | 180 kts | 282° |
| 2026-04-25 04:58 | -37.93225 | 145.98480 | 9000 ft | 179 kts | 282° |
| 2026-04-25 04:59 | -37.93041 | 145.96921 | 8985 ft | 178 kts | 281° |
| 2026-04-25 04:59 | -37.92868 | 145.95379 | 8987 ft | 177 kts | 281° |
| 2026-04-25 04:59 | -37.92697 | 145.93841 | 8981 ft | 176 kts | 282° |
| 2026-04-25 04:59 | -37.92481 | 145.92328 | 8993 ft | 174 kts | 284° |
| 2026-04-25 05:00 | -37.92223 | 145.90828 | 8998 ft | 175 kts | 285° |
| 2026-04-25 05:00 | -37.91955 | 145.89326 | 8983 ft | 174 kts | 286° |
| 2026-04-25 05:00 | -37.91680 | 145.87834 | 8994 ft | 174 kts | 286° |
| 2026-04-25 05:00 | -37.91397 | 145.86343 | 9000 ft | 175 kts | 286° |
| 2026-04-25 05:01 | -37.91109 | 145.84844 | 8997 ft | 175 kts | 286° |
| 2026-04-25 05:01 | -37.90819 | 145.83342 | 8997 ft | 176 kts | 286° |
| 2026-04-25 05:01 | -37.90527 | 145.81838 | 8996 ft | 176 kts | 286° |
| 2026-04-25 05:01 | -37.90235 | 145.80329 | 8993 ft | 177 kts | 286° |
| 2026-04-25 05:02 | -37.89944 | 145.78817 | 8985 ft | 177 kts | 286° |
| 2026-04-25 05:02 | -37.89652 | 145.77303 | 8991 ft | 177 kts | 286° |
| 2026-04-25 05:02 | -37.89366 | 145.75789 | 8990 ft | 177 kts | 286° |
| 2026-04-25 05:02 | -37.89081 | 145.74269 | 8981 ft | 177 kts | 286° |
| 2026-04-25 05:03 | -37.88797 | 145.72753 | 8983 ft | 177 kts | 286° |
| 2026-04-25 05:03 | -37.88515 | 145.71252 | 8978 ft | 175 kts | 286° |
| 2026-04-25 05:03 | -37.88237 | 145.69752 | 8972 ft | 174 kts | 286° |
| 2026-04-25 05:03 | -37.87965 | 145.68262 | 8979 ft | 173 kts | 286° |
| 2026-04-25 05:04 | -37.87695 | 145.66777 | 8977 ft | 173 kts | 286° |
| 2026-04-25 05:04 | -37.87421 | 145.65294 | 8983 ft | 173 kts | 286° |
| 2026-04-25 05:04 | -37.87143 | 145.63811 | 8985 ft | 173 kts | 286° |
| 2026-04-25 05:04 | -37.86866 | 145.62322 | 8990 ft | 174 kts | 286° |
| 2026-04-25 05:05 | -37.86587 | 145.60827 | 8989 ft | 175 kts | 286° |
| 2026-04-25 05:05 | -37.86308 | 145.59322 | 8986 ft | 176 kts | 286° |
| 2026-04-25 05:05 | -37.86029 | 145.57816 | 8976 ft | 176 kts | 286° |
| 2026-04-25 05:05 | -37.85752 | 145.56312 | 8978 ft | 176 kts | 286° |
| 2026-04-25 05:06 | -37.85473 | 145.54802 | 8986 ft | 176 kts | 286° |
| 2026-04-25 05:06 | -37.85194 | 145.53291 | 8978 ft | 177 kts | 286° |
| 2026-04-25 05:06 | -37.84918 | 145.51779 | 8979 ft | 176 kts | 286° |
| 2026-04-25 05:06 | -37.84646 | 145.50271 | 8980 ft | 175 kts | 286° |
| 2026-04-25 05:07 | -37.84374 | 145.48771 | 8981 ft | 175 kts | 286° |
| 2026-04-25 05:07 | -37.84103 | 145.47274 | 8979 ft | 174 kts | 286° |
| 2026-04-25 05:07 | -37.83826 | 145.45785 | 8980 ft | 174 kts | 289° |
| 2026-04-25 05:07 | -37.83411 | 145.44355 | 8975 ft | 172 kts | 294° |
| 2026-04-25 05:08 | -37.83048 | 145.42912 | 8978 ft | 172 kts | 291° |
| 2026-04-25 05:08 | -37.82652 | 145.41462 | 8977 ft | 172 kts | 292° |
| 2026-04-25 05:08 | -37.82244 | 145.40056 | 8904 ft | 175 kts | 292° |
| 2026-04-25 05:08 | -37.81882 | 145.38585 | 8953 ft | 170 kts | 287° |
| 2026-04-25 05:09 | -37.81682 | 145.37123 | 8936 ft | 172 kts | 286° |
| 2026-04-25 05:09 | -37.81327 | 145.35594 | 8624 ft | 184 kts | 291° |
| 2026-04-25 05:09 | -37.80885 | 145.34043 | 8331 ft | 190 kts | 293° |
| 2026-04-25 05:09 | -37.80408 | 145.32474 | 8043 ft | 192 kts | 294° |
| 2026-04-25 05:10 | -37.79916 | 145.30895 | 7734 ft | 194 kts | 294° |
| 2026-04-25 05:10 | -37.79421 | 145.29308 | 7422 ft | 194 kts | 294° |
| 2026-04-25 05:10 | -37.78927 | 145.27722 | 7114 ft | 194 kts | 294° |
| 2026-04-25 05:10 | -37.78403 | 145.26149 | 6826 ft | 193 kts | 298° |
| 2026-04-25 05:11 | -37.77770 | 145.24679 | 6512 ft | 188 kts | 304° |
| 2026-04-25 05:11 | -37.77058 | 145.23306 | 6196 ft | 186 kts | 306° |
| 2026-04-25 05:11 | -37.76325 | 145.21968 | 5880 ft | 185 kts | 307° |
| 2026-04-25 05:12 | -37.74852 | 145.19312 | 5303 ft | 184 kts | 308° |
| 2026-04-25 05:12 | -37.74120 | 145.17989 | 5024 ft | 183 kts | 308° |
| 2026-04-25 05:12 | -37.73393 | 145.16675 | 4710 ft | 182 kts | 307° |
| 2026-04-25 05:12 | -37.72664 | 145.15365 | 4348 ft | 182 kts | 307° |
| 2026-04-25 05:13 | -37.72130 | 145.13911 | 4047 ft | 189 kts | 282° |
| 2026-04-25 05:13 | -37.72073 | 145.12249 | 3740 ft | 190 kts | 275° |
| 2026-04-25 05:13 | -37.72128 | 145.10579 | 3435 ft | 191 kts | 271° |
| 2026-04-25 05:13 | -37.72276 | 145.08902 | 3133 ft | 192 kts | 266° |
| 2026-04-25 05:14 | -37.72565 | 145.07269 | 2830 ft | 189 kts | 261° |
| 2026-04-25 05:14 | -37.72864 | 145.05675 | 2534 ft | 184 kts | 265° |
| 2026-04-25 05:14 | -37.73013 | 145.04093 | 2255 ft | 180 kts | 274° |
| 2026-04-25 05:15 | -37.72844 | 145.01053 | 1819 ft | 163 kts | 282° |
| 2026-04-25 05:15 | -37.72778 | 144.99652 | 1699 ft | 154 kts | 278° |
| 2026-04-25 05:15 | -37.72793 | 144.98358 | 1473 ft | 143 kts | 276° |
| 2026-04-25 05:15 | -37.72851 | 144.97115 | 1139 ft | 141 kts | 273° |
| 2026-04-25 05:16 | -37.72979 | 144.95953 | 1041 ft | 127 kts | 271° |
| 2026-04-25 05:16 | -37.73035 | 144.94828 | 784 ft | 124 kts | 279° |
| 2026-04-25 05:16 | -37.73044 | 144.93844 | 694 ft | 119 kts | 279° |
| 2026-04-25 05:16 | -37.73056 | 144.92751 | 645 ft | 123 kts | 272° |
| 2026-04-25 05:17 | -37.73129 | 144.91541 | 373 ft | 146 kts | 274° |
| 2026-04-25 05:17 | -37.73223 | 144.90444 | 1017 ft | 119 kts | 265° |
| 2026-04-25 05:17 | -37.73721 | 144.89533 | 1179 ft | 146 kts | 221° |
| 2026-04-25 05:17 | -37.74696 | 144.88926 | 1497 ft | 161 kts | 189° |
| 2026-04-25 05:18 | -37.75764 | 144.89199 | 2033 ft | 157 kts | 145° |
| 2026-04-25 05:18 | -37.76688 | 144.89932 | 2481 ft | 158 kts | 143° |
| 2026-04-25 05:18 | -37.77659 | 144.90765 | 2722 ft | 177 kts | 142° |
| 2026-04-25 05:18 | -37.78709 | 144.91705 | 2911 ft | 191 kts | 141° |
| 2026-04-25 05:19 | -37.79787 | 144.92719 | 3201 ft | 191 kts | 140° |
| 2026-04-25 05:19 | -37.80844 | 144.93702 | 3590 ft | 186 kts | 141° |
| 2026-04-25 05:19 | -37.81873 | 144.94670 | 3951 ft | 183 kts | 141° |
| 2026-04-25 05:19 | -37.82888 | 144.95648 | 4303 ft | 183 kts | 141° |
| 2026-04-25 05:20 | -37.83895 | 144.96645 | 4684 ft | 184 kts | 136° |
| 2026-04-25 05:20 | -37.84737 | 144.97836 | 5007 ft | 180 kts | 121° |
| 2026-04-25 05:20 | -37.85315 | 144.99218 | 5302 ft | 177 kts | 107° |
| 2026-04-25 05:20 | -37.85720 | 145.00682 | 5598 ft | 176 kts | 102° |
| 2026-04-25 05:21 | -37.86068 | 145.02167 | 5885 ft | 176 kts | 101° |
| 2026-04-25 05:21 | -37.86395 | 145.03663 | 6172 ft | 177 kts | 100° |
| 2026-04-25 05:21 | -37.86711 | 145.05169 | 6456 ft | 178 kts | 100° |
| 2026-04-25 05:21 | -37.87019 | 145.06690 | 6734 ft | 179 kts | 100° |
| 2026-04-25 05:22 | -37.87323 | 145.08217 | 7008 ft | 179 kts | 100° |
| 2026-04-25 05:22 | -37.87529 | 145.09251 | 7200 ft | 179 kts | 100° |
| 2026-04-25 05:22 | -37.87832 | 145.10782 | 7500 ft | 180 kts | 100° |
| 2026-04-25 05:22 | -37.88136 | 145.12317 | 7791 ft | 180 kts | 100° |
| 2026-04-25 05:23 | -37.88439 | 145.13856 | 8073 ft | 180 kts | 100° |
| 2026-04-25 05:23 | -37.88740 | 145.15398 | 8367 ft | 181 kts | 100° |
| 2026-04-25 05:23 | -37.89041 | 145.16944 | 8677 ft | 181 kts | 100° |
| 2026-04-25 05:23 | -37.89360 | 145.18489 | 8975 ft | 182 kts | 102° |
| 2026-04-25 05:24 | -37.89716 | 145.20027 | 9280 ft | 182 kts | 103° |
| 2026-04-25 05:24 | -37.90086 | 145.21564 | 9600 ft | 183 kts | 104° |
| 2026-04-25 05:24 | -37.90462 | 145.23102 | 9931 ft | 183 kts | 104° |
| 2026-04-25 05:24 | -37.90842 | 145.24646 | 10247 ft | 184 kts | 104° |
| 2026-04-25 05:25 | -37.91226 | 145.26191 | 10535 ft | 184 kts | 104° |
| 2026-04-25 05:25 | -37.91616 | 145.27751 | 10770 ft | 189 kts | 104° |
| 2026-04-25 05:25 | -37.92015 | 145.29431 | 10679 ft | 212 kts | 102° |
| 2026-04-25 05:25 | -37.92430 | 145.31278 | 10593 ft | 222 kts | 103° |
| 2026-04-25 05:26 | -37.92879 | 145.33183 | 10513 ft | 228 kts | 104° |
| 2026-04-25 05:26 | -37.93346 | 145.35129 | 10413 ft | 233 kts | 104° |
| 2026-04-25 05:26 | -37.93820 | 145.37103 | 10292 ft | 235 kts | 104° |
| 2026-04-25 05:26 | -37.94299 | 145.39092 | 10164 ft | 237 kts | 104° |
| 2026-04-25 05:27 | -37.94782 | 145.41089 | 10001 ft | 237 kts | 104° |
| 2026-04-25 05:27 | -37.95265 | 145.43088 | 9856 ft | 238 kts | 104° |
| 2026-04-25 05:27 | -37.95754 | 145.45095 | 9736 ft | 238 kts | 103° |
| 2026-04-25 05:27 | -37.96235 | 145.47105 | 9614 ft | 238 kts | 104° |
| 2026-04-25 05:28 | -37.96719 | 145.49113 | 9496 ft | 238 kts | 104° |
| 2026-04-25 05:28 | -37.97199 | 145.51118 | 9380 ft | 238 kts | 103° |
| 2026-04-25 05:28 | -37.97578 | 145.53149 | 9260 ft | 237 kts | 98° |
| 2026-04-25 05:28 | -37.97888 | 145.55195 | 9146 ft | 236 kts | 97° |
| 2026-04-25 05:29 | -37.98174 | 145.57247 | 9023 ft | 236 kts | 96° |
| 2026-04-25 05:29 | -37.98234 | 145.59303 | 8880 ft | 233 kts | 84° |
| 2026-04-25 05:29 | -37.98162 | 145.61350 | 8736 ft | 232 kts | 82° |
| 2026-04-25 05:29 | -37.98102 | 145.63386 | 8599 ft | 230 kts | 84° |
| 2026-04-25 05:30 | -37.98077 | 145.65405 | 8454 ft | 228 kts | 84° |
| 2026-04-25 05:30 | -37.98068 | 145.67435 | 8157 ft | 233 kts | 85° |
| 2026-04-25 05:30 | -37.98088 | 145.69505 | 7841 ft | 237 kts | 87° |
| 2026-04-25 05:30 | -37.98140 | 145.71602 | 7524 ft | 239 kts | 88° |
| 2026-04-25 05:31 | -37.98207 | 145.73704 | 7235 ft | 239 kts | 88° |
| 2026-04-25 05:31 | -37.98279 | 145.75812 | 6936 ft | 239 kts | 88° |
| 2026-04-25 05:31 | -37.98349 | 145.77911 | 6626 ft | 238 kts | 88° |
| 2026-04-25 05:31 | -37.98419 | 145.80006 | 6301 ft | 237 kts | 88° |
| 2026-04-25 05:32 | -37.98485 | 145.82117 | 6034 ft | 235 kts | 88° |
| 2026-04-25 05:32 | -37.98539 | 145.84176 | 5762 ft | 233 kts | 88° |
| 2026-04-25 05:32 | -37.98594 | 145.86212 | 5415 ft | 229 kts | 88° |
| 2026-04-25 05:32 | -37.98653 | 145.88223 | 5086 ft | 227 kts | 89° |
| 2026-04-25 05:33 | -37.98710 | 145.90221 | 4717 ft | 226 kts | 88° |
| 2026-04-25 05:33 | -37.98827 | 145.92198 | 4327 ft | 226 kts | 100° |
| 2026-04-25 05:33 | -37.99463 | 145.94024 | 3973 ft | 226 kts | 115° |
| 2026-04-25 05:33 | -38.00202 | 145.95774 | 3691 ft | 224 kts | 115° |
| 2026-04-25 05:34 | -38.00926 | 145.97512 | 3450 ft | 221 kts | 116° |
| 2026-04-25 05:34 | -38.01616 | 145.99180 | 3228 ft | 207 kts | 115° |
| 2026-04-25 05:34 | -38.02273 | 146.00742 | 3088 ft | 194 kts | 116° |
| 2026-04-25 05:34 | -38.02918 | 146.02188 | 3032 ft | 183 kts | 118° |
| 2026-04-25 05:35 | -38.03568 | 146.03551 | 3044 ft | 179 kts | 120° |
| 2026-04-25 05:35 | -38.04211 | 146.04887 | 3045 ft | 177 kts | 120° |
| 2026-04-25 05:35 | -38.04855 | 146.06219 | 3044 ft | 177 kts | 120° |
| 2026-04-25 05:35 | -38.05498 | 146.07554 | 3023 ft | 177 kts | 119° |
| 2026-04-25 05:36 | -38.06133 | 146.08885 | 3002 ft | 176 kts | 119° |
| 2026-04-25 05:36 | -38.06752 | 146.10217 | 3001 ft | 174 kts | 118° |
| 2026-04-25 05:36 | -38.07370 | 146.11538 | 3020 ft | 175 kts | 118° |
| 2026-04-25 05:36 | -38.07983 | 146.12877 | 3014 ft | 176 kts | 117° |
| 2026-04-25 05:37 | -38.08559 | 146.14230 | 2995 ft | 173 kts | 116° |
| 2026-04-25 05:37 | -38.09105 | 146.15581 | 2994 ft | 171 kts | 115° |
| 2026-04-25 05:37 | -38.09638 | 146.16930 | 3003 ft | 171 kts | 115° |
| 2026-04-25 05:37 | -38.10168 | 146.18276 | 3015 ft | 171 kts | 115° |
| 2026-04-25 05:38 | -38.10702 | 146.19633 | 3022 ft | 172 kts | 114° |
| 2026-04-25 05:38 | -38.11242 | 146.20990 | 3024 ft | 173 kts | 115° |
| 2026-04-25 05:38 | -38.11783 | 146.22361 | 3017 ft | 174 kts | 115° |
| 2026-04-25 05:38 | -38.12320 | 146.23730 | 3006 ft | 173 kts | 114° |
| 2026-04-25 05:39 | -38.12858 | 146.25101 | 3011 ft | 173 kts | 115° |
| 2026-04-25 05:39 | -38.13394 | 146.26459 | 2996 ft | 169 kts | 114° |
| 2026-04-25 05:39 | -38.13907 | 146.27774 | 2992 ft | 164 kts | 115° |
| 2026-04-25 05:39 | -38.14409 | 146.29064 | 2998 ft | 162 kts | 115° |
| 2026-04-25 05:40 | -38.14908 | 146.30336 | 2998 ft | 160 kts | 115° |
| 2026-04-25 05:40 | -38.15401 | 146.31584 | 2985 ft | 157 kts | 114° |
| 2026-04-25 05:40 | -38.15877 | 146.32819 | 2980 ft | 155 kts | 114° |
| 2026-04-25 05:40 | -38.16340 | 146.34044 | 3001 ft | 154 kts | 113° |
| 2026-04-25 05:41 | -38.16781 | 146.35286 | 3003 ft | 155 kts | 112° |
| 2026-04-25 05:41 | -38.17211 | 146.36535 | 2997 ft | 154 kts | 112° |
| 2026-04-25 05:41 | -38.17641 | 146.37793 | 3010 ft | 156 kts | 111° |
| 2026-04-25 05:41 | -38.18079 | 146.39077 | 3002 ft | 156 kts | 112° |
| 2026-04-25 05:42 | -38.18498 | 146.40360 | 3017 ft | 158 kts | 110° |
| 2026-04-25 05:42 | -38.18893 | 146.41646 | 2999 ft | 158 kts | 109° |
| 2026-04-25 05:42 | -38.19288 | 146.42974 | 2994 ft | 157 kts | 109° |
| 2026-04-25 05:42 | -38.19672 | 146.44246 | 2984 ft | 152 kts | 109° |
| 2026-04-25 05:43 | -38.20044 | 146.45491 | 2986 ft | 149 kts | 107° |
| 2026-04-25 05:43 | -38.20377 | 146.46725 | 2995 ft | 147 kts | 105° |
| 2026-04-25 05:43 | -38.20650 | 146.47971 | 3005 ft | 145 kts | 92° |
| 2026-04-25 05:43 | -38.20355 | 146.49149 | 3011 ft | 143 kts | 52° |
| 2026-04-25 05:44 | -38.19738 | 146.50159 | 3001 ft | 147 kts | 46° |
| 2026-04-25 05:44 | -38.19027 | 146.51172 | 2831 ft | 156 kts | 44° |
| 2026-04-25 05:44 | -38.18285 | 146.52181 | 2711 ft | 156 kts | 44° |
| 2026-04-25 05:44 | -38.17534 | 146.53182 | 2573 ft | 156 kts | 43° |
| 2026-04-25 05:45 | -38.16793 | 146.54176 | 2460 ft | 153 kts | 44° |
| 2026-04-25 05:45 | -38.16060 | 146.55147 | 2301 ft | 151 kts | 45° |
| 2026-04-25 05:45 | -38.15330 | 146.56092 | 2147 ft | 148 kts | 44° |
| 2026-04-25 05:45 | -38.14658 | 146.57042 | 2072 ft | 141 kts | 42° |
| 2026-04-25 05:46 | -38.14157 | 146.58048 | 2031 ft | 137 kts | 83° |
| 2026-04-25 05:46 | -38.14497 | 146.59124 | 2027 ft | 137 kts | 140° |
| 2026-04-25 05:46 | -38.15386 | 146.59383 | 2017 ft | 135 kts | 197° |
| 2026-04-25 05:46 | -38.16104 | 146.58661 | 2024 ft | 136 kts | 233° |
| 2026-04-25 05:47 | -38.16691 | 146.57623 | 1788 ft | 148 kts | 238° |
| 2026-04-25 05:47 | -38.17235 | 146.56538 | 1506 ft | 144 kts | 238° |
| 2026-04-25 05:47 | -38.17752 | 146.55462 | 1241 ft | 140 kts | 239° |
| 2026-04-25 05:47 | -38.18188 | 146.54391 | 1080 ft | 134 kts | 250° |
| 2026-04-25 05:48 | -38.18365 | 146.53237 | 979 ft | 133 kts | 267° |
| 2026-04-25 05:48 | -38.18416 | 146.52072 | 958 ft | 130 kts | 267° |
| 2026-04-25 05:48 | -38.18613 | 146.50987 | 925 ft | 124 kts | 252° |
| 2026-04-25 05:48 | -38.18921 | 146.50014 | 823 ft | 114 kts | 242° |
| 2026-04-25 05:49 | -38.19389 | 146.49240 | 618 ft | 111 kts | 227° |
| 2026-04-25 05:49 | -38.19938 | 146.48541 | 449 ft | 112 kts | 225° |
| 2026-04-25 05:49 | -38.20481 | 146.47868 | 250 ft | 107 kts | 225° |
| 2026-04-25 05:49 | -38.20958 | 146.47264 | 180 ft | 82 kts | 225° |
| 2026-04-25 05:50 | -38.21290 | 146.46844 | 180 ft | 52 kts | 225° |
| 2026-04-25 05:50 | -38.21446 | 146.46644 | 178 ft | 11 kts | 225° |
| 2026-04-25 05:50 | -38.21470 | 146.46622 | 177 ft | 6 kts | 96° |
| 2026-04-25 05:50 | -38.21407 | 146.46699 | 179 ft | 18 kts | 45° |
| 2026-04-25 05:51 | -38.21314 | 146.46825 | 180 ft | 21 kts | 41° |
| 2026-04-25 05:51 | -38.21204 | 146.46956 | 180 ft | 18 kts | 41° |
| 2026-04-25 05:51 | -38.21110 | 146.47074 | 180 ft | 20 kts | 45° |
| 2026-04-25 05:51 | -38.21016 | 146.47195 | 182 ft | 15 kts | 45° |
| 2026-04-25 05:52 | -38.20952 | 146.47276 | 179 ft | 9 kts | 44° |
| 2026-04-25 05:52 | -38.20952 | 146.47325 | 179 ft | 7 kts | 136° |
| 2026-04-25 05:52 | -38.20989 | 146.47371 | 178 ft | 7 kts | 136° |
| 2026-04-25 05:52 | -38.21007 | 146.47393 | 178 ft | 0 kts | 136° |
| 2026-04-25 05:53 | -38.21020 | 146.47409 | 179 ft | 8 kts | 136° |
| 2026-04-25 05:53 | -38.21003 | 146.47467 | 179 ft | 8 kts | 47° |
| 2026-04-25 05:53 | -38.21010 | 146.47513 | 179 ft | 4 kts | 82° |
| 2026-04-25 05:53 | -38.21002 | 146.47526 | 179 ft | 0 kts | 46° |